sensor_id;sensor_type;location;lat;lon;timestamp;temperature;humidity
11838;DHT22;5978;51.020;6.764;2022-12-29T00:01:17;10.70;99.90
11838;DHT22;5978;51.020;6.764;2022-12-29T00:03:45;10.70;99.90
11838;DHT22;5978;51.020;6.764;2022-12-29T00:06:11;10.70;99.90
11838;DHT22;5978;51.020;6.764;2022-12-29T00:08:37;10.70;99.90
11838;DHT22;5978;51.020;6.764;2022-12-29T00:11:15;10.70;99.90
11838;DHT22;5978;51.020;6.764;2022-12-29T00:13:41;10.70;99.90
11838;DHT22;5978;51.020;6.764;2022-12-29T00:16:27;10.70;99.90
11838;DHT22;5978;51.020;6.764;2022-12-29T00:18:52;10.70;99.90
11838;DHT22;5978;51.020;6.764;2022-12-29T00:21:20;10.70;99.90
11838;DHT22;5978;51.020;6.764;2022-12-29T00:24:05;10.90;99.90
11838;DHT22;5978;51.020;6.764;2022-12-29T00:27:12;10.80;99.90
11838;DHT22;5978;51.020;6.764;2022-12-29T00:29:57;10.90;99.90
11838;DHT22;5978;51.020;6.764;2022-12-29T00:32:41;10.90;99.90
11838;DHT22;5978;51.020;6.764;2022-12-29T00:35:34;10.90;99.90
11838;DHT22;5978;51.020;6.764;2022-12-29T00:38:05;11.00;99.90
11838;DHT22;5978;51.020;6.764;2022-12-29T00:40:50;11.00;99.90
11838;DHT22;5978;51.020;6.764;2022-12-29T00:43:34;11.10;99.90
11838;DHT22;5978;51.020;6.764;2022-12-29T00:46:18;11.10;99.90
11838;DHT22;5978;51.020;6.764;2022-12-29T00:48:44;11.80;99.90
11838;DHT22;5978;51.020;6.764;2022-12-29T00:51:28;11.20;99.90
11838;DHT22;5978;51.020;6.764;2022-12-29T00:53:53;11.20;99.90
11838;DHT22;5978;51.020;6.764;2022-12-29T00:56:19;11.30;99.90
11838;DHT22;5978;51.020;6.764;2022-12-29T00:58:45;11.30;99.90
11838;DHT22;5978;51.020;6.764;2022-12-29T01:01:10;11.40;99.90
11838;DHT22;5978;51.020;6.764;2022-12-29T01:03:36;11.40;99.90
11838;DHT22;5978;51.020;6.764;2022-12-29T01:06:04;11.30;99.90
11838;DHT22;5978;51.020;6.764;2022-12-29T01:08:30;11.20;99.90
11838;DHT22;5978;51.020;6.764;2022-12-29T01:11:00;11.10;99.90
11838;DHT22;5978;51.020;6.764;2022-12-29T01:13:26;11.10;99.90
11838;DHT22;5978;51.020;6.764;2022-12-29T01:15:52;11.10;99.90
11838;DHT22;5978;51.020;6.764;2022-12-29T01:18:18;11.10;99.90
11838;DHT22;5978;51.020;6.764;2022-12-29T01:20:44;11.10;99.90
11838;DHT22;5978;51.020;6.764;2022-12-29T01:23:10;11.10;99.90
11838;DHT22;5978;51.020;6.764;2022-12-29T01:25:35;11.20;99.90
11838;DHT22;5978;51.020;6.764;2022-12-29T01:28:01;11.30;99.90
11838;DHT22;5978;51.020;6.764;2022-12-29T01:30:26;11.30;99.90
11838;DHT22;5978;51.020;6.764;2022-12-29T01:32:52;11.40;99.90
11838;DHT22;5978;51.020;6.764;2022-12-29T01:35:17;11.40;99.90
11838;DHT22;5978;51.020;6.764;2022-12-29T01:37:43;11.30;99.90
11838;DHT22;5978;51.020;6.764;2022-12-29T01:40:09;11.40;99.90
11838;DHT22;5978;51.020;6.764;2022-12-29T01:42:34;11.50;99.90
11838;DHT22;5978;51.020;6.764;2022-12-29T01:45:04;11.50;99.90
11838;DHT22;5978;51.020;6.764;2022-12-29T01:47:40;11.50;99.90
11838;DHT22;5978;51.020;6.764;2022-12-29T01:50:11;11.50;99.90
11838;DHT22;5978;51.020;6.764;2022-12-29T01:52:42;11.50;99.90
11838;DHT22;5978;51.020;6.764;2022-12-29T01:55:09;11.50;99.90
11838;DHT22;5978;51.020;6.764;2022-12-29T01:57:39;11.60;99.90
11838;DHT22;5978;51.020;6.764;2022-12-29T02:00:11;11.60;99.90
11838;DHT22;5978;51.020;6.764;2022-12-29T02:02:40;11.60;99.90
11838;DHT22;5978;51.020;6.764;2022-12-29T02:05:11;11.60;99.90
11838;DHT22;5978;51.020;6.764;2022-12-29T02:07:39;11.50;99.90
11838;DHT22;5978;51.020;6.764;2022-12-29T02:10:06;11.60;99.90
11838;DHT22;5978;51.020;6.764;2022-12-29T02:12:32;11.60;99.90
11838;DHT22;5978;51.020;6.764;2022-12-29T02:15:00;11.70;99.90
11838;DHT22;5978;51.020;6.764;2022-12-29T02:17:50;11.70;99.90
11838;DHT22;5978;51.020;6.764;2022-12-29T02:31:27;12.00;99.90
11838;DHT22;5978;51.020;6.764;2022-12-29T02:34:05;12.00;99.90
11838;DHT22;5978;51.020;6.764;2022-12-29T02:39:20;12.10;99.90
11838;DHT22;5978;51.020;6.764;2022-12-29T02:45:13;12.00;99.90
11838;DHT22;5978;51.020;6.764;2022-12-29T02:50:27;12.10;99.90
11838;DHT22;5978;51.020;6.764;2022-12-29T02:53:00;12.10;99.90
11838;DHT22;5978;51.020;6.764;2022-12-29T02:55:26;12.10;99.90
11838;DHT22;5978;51.020;6.764;2022-12-29T02:58:15;12.10;99.90
11838;DHT22;5978;51.020;6.764;2022-12-29T03:01:03;12.30;99.90
11838;DHT22;5978;51.020;6.764;2022-12-29T03:03:36;12.20;99.90
11838;DHT22;5978;51.020;6.764;2022-12-29T03:09:24;12.20;99.90
11838;DHT22;5978;51.020;6.764;2022-12-29T03:12:00;12.20;99.90
11838;DHT22;5978;51.020;6.764;2022-12-29T03:17:57;12.40;99.90
11838;DHT22;5978;51.020;6.764;2022-12-29T03:20:46;12.30;99.90
11838;DHT22;5978;51.020;6.764;2022-12-29T03:23:16;12.30;99.90
11838;DHT22;5978;51.020;6.764;2022-12-29T03:25:47;12.30;99.90
11838;DHT22;5978;51.020;6.764;2022-12-29T03:28:24;12.30;99.90
11838;DHT22;5978;51.020;6.764;2022-12-29T03:30:51;12.30;99.90
11838;DHT22;5978;51.020;6.764;2022-12-29T03:33:21;12.30;99.90
11838;DHT22;5978;51.020;6.764;2022-12-29T03:35:49;12.30;99.90
11838;DHT22;5978;51.020;6.764;2022-12-29T03:38:42;13.30;99.90
11838;DHT22;5978;51.020;6.764;2022-12-29T03:41:16;12.40;99.90
11838;DHT22;5978;51.020;6.764;2022-12-29T03:43:42;12.40;99.90
11838;DHT22;5978;51.020;6.764;2022-12-29T03:46:08;12.30;99.90
11838;DHT22;5978;51.020;6.764;2022-12-29T03:48:34;12.40;99.90
11838;DHT22;5978;51.020;6.764;2022-12-29T03:50:59;12.40;99.90
11838;DHT22;5978;51.020;6.764;2022-12-29T03:53:25;12.40;99.90
11838;DHT22;5978;51.020;6.764;2022-12-29T03:55:50;12.40;99.90
11838;DHT22;5978;51.020;6.764;2022-12-29T03:58:16;12.40;99.90
11838;DHT22;5978;51.020;6.764;2022-12-29T04:00:41;12.40;99.90
11838;DHT22;5978;51.020;6.764;2022-12-29T04:03:07;12.40;99.90
11838;DHT22;5978;51.020;6.764;2022-12-29T04:05:32;12.40;99.90
11838;DHT22;5978;51.020;6.764;2022-12-29T04:07:58;12.30;99.90
11838;DHT22;5978;51.020;6.764;2022-12-29T04:10:24;12.40;99.90
11838;DHT22;5978;51.020;6.764;2022-12-29T04:12:49;12.30;99.90
11838;DHT22;5978;51.020;6.764;2022-12-29T04:15:15;12.30;99.90
11838;DHT22;5978;51.020;6.764;2022-12-29T04:17:40;12.20;99.90
11838;DHT22;5978;51.020;6.764;2022-12-29T04:20:06;12.20;99.90
11838;DHT22;5978;51.020;6.764;2022-12-29T04:22:58;12.20;99.90
11838;DHT22;5978;51.020;6.764;2022-12-29T04:25:24;12.20;99.90
11838;DHT22;5978;51.020;6.764;2022-12-29T04:27:49;12.20;99.90
11838;DHT22;5978;51.020;6.764;2022-12-29T04:30:15;12.10;99.90
11838;DHT22;5978;51.020;6.764;2022-12-29T04:32:41;12.10;99.90
11838;DHT22;5978;51.020;6.764;2022-12-29T04:35:06;12.20;99.90
11838;DHT22;5978;51.020;6.764;2022-12-29T04:37:32;12.30;99.90
11838;DHT22;5978;51.020;6.764;2022-12-29T04:39:57;12.40;99.90
11838;DHT22;5978;51.020;6.764;2022-12-29T04:42:23;12.30;99.90
11838;DHT22;5978;51.020;6.764;2022-12-29T04:44:48;12.30;99.90
11838;DHT22;5978;51.020;6.764;2022-12-29T04:47:14;12.40;99.90
11838;DHT22;5978;51.020;6.764;2022-12-29T04:49:39;12.40;99.90
11838;DHT22;5978;51.020;6.764;2022-12-29T04:52:05;12.40;99.90
11838;DHT22;5978;51.020;6.764;2022-12-29T04:54:31;12.30;99.90
11838;DHT22;5978;51.020;6.764;2022-12-29T04:56:56;12.40;99.90
11838;DHT22;5978;51.020;6.764;2022-12-29T04:59:22;12.40;99.90
11838;DHT22;5978;51.020;6.764;2022-12-29T05:01:47;12.30;99.90
11838;DHT22;5978;51.020;6.764;2022-12-29T05:04:13;12.30;99.90
11838;DHT22;5978;51.020;6.764;2022-12-29T05:06:38;12.40;99.90
11838;DHT22;5978;51.020;6.764;2022-12-29T05:09:04;12.40;99.90
11838;DHT22;5978;51.020;6.764;2022-12-29T05:11:29;12.40;99.90
11838;DHT22;5978;51.020;6.764;2022-12-29T05:13:55;12.50;99.90
11838;DHT22;5978;51.020;6.764;2022-12-29T05:16:20;12.50;99.90
11838;DHT22;5978;51.020;6.764;2022-12-29T05:18:46;12.50;99.90
11838;DHT22;5978;51.020;6.764;2022-12-29T05:21:11;12.50;99.90
11838;DHT22;5978;51.020;6.764;2022-12-29T05:23:37;12.50;99.90
11838;DHT22;5978;51.020;6.764;2022-12-29T05:26:02;12.60;99.90
11838;DHT22;5978;51.020;6.764;2022-12-29T05:28:28;12.60;99.90
11838;DHT22;5978;51.020;6.764;2022-12-29T05:30:53;12.60;99.90
11838;DHT22;5978;51.020;6.764;2022-12-29T05:33:19;12.60;99.90
11838;DHT22;5978;51.020;6.764;2022-12-29T05:35:45;12.60;99.90
11838;DHT22;5978;51.020;6.764;2022-12-29T05:38:10;12.60;99.90
11838;DHT22;5978;51.020;6.764;2022-12-29T05:40:36;12.50;99.90
11838;DHT22;5978;51.020;6.764;2022-12-29T05:43:01;12.50;99.90
11838;DHT22;5978;51.020;6.764;2022-12-29T05:45:27;12.50;99.90
11838;DHT22;5978;51.020;6.764;2022-12-29T05:47:53;12.50;99.90
11838;DHT22;5978;51.020;6.764;2022-12-29T05:50:18;12.50;99.90
11838;DHT22;5978;51.020;6.764;2022-12-29T05:52:44;12.50;99.90
11838;DHT22;5978;51.020;6.764;2022-12-29T05:55:10;12.50;99.90
11838;DHT22;5978;51.020;6.764;2022-12-29T05:57:35;12.50;99.90
11838;DHT22;5978;51.020;6.764;2022-12-29T06:00:02;12.50;99.90
11838;DHT22;5978;51.020;6.764;2022-12-29T06:02:28;12.40;99.90
11838;DHT22;5978;51.020;6.764;2022-12-29T06:04:53;12.50;99.90
11838;DHT22;5978;51.020;6.764;2022-12-29T06:07:19;12.50;99.90
11838;DHT22;5978;51.020;6.764;2022-12-29T06:09:44;12.50;99.90
11838;DHT22;5978;51.020;6.764;2022-12-29T06:12:10;12.50;99.90
11838;DHT22;5978;51.020;6.764;2022-12-29T06:14:35;12.40;99.90
11838;DHT22;5978;51.020;6.764;2022-12-29T06:17:01;12.40;99.90
11838;DHT22;5978;51.020;6.764;2022-12-29T06:19:26;12.40;99.90
11838;DHT22;5978;51.020;6.764;2022-12-29T06:21:52;12.40;99.90
11838;DHT22;5978;51.020;6.764;2022-12-29T06:24:18;12.40;99.90
11838;DHT22;5978;51.020;6.764;2022-12-29T06:26:44;12.30;99.90
11838;DHT22;5978;51.020;6.764;2022-12-29T06:29:09;12.30;99.90
11838;DHT22;5978;51.020;6.764;2022-12-29T06:31:35;12.20;99.90
11838;DHT22;5978;51.020;6.764;2022-12-29T06:34:01;12.20;99.90
11838;DHT22;5978;51.020;6.764;2022-12-29T06:36:28;12.20;99.90
11838;DHT22;5978;51.020;6.764;2022-12-29T06:38:53;12.40;99.90
11838;DHT22;5978;51.020;6.764;2022-12-29T06:41:20;12.20;99.90
11838;DHT22;5978;51.020;6.764;2022-12-29T06:43:45;12.70;99.90
11838;DHT22;5978;51.020;6.764;2022-12-29T06:46:11;12.30;99.90
11838;DHT22;5978;51.020;6.764;2022-12-29T06:48:36;12.20;99.90
11838;DHT22;5978;51.020;6.764;2022-12-29T06:51:02;12.20;99.90
11838;DHT22;5978;51.020;6.764;2022-12-29T06:53:27;12.20;99.90
11838;DHT22;5978;51.020;6.764;2022-12-29T06:55:53;12.20;99.90
11838;DHT22;5978;51.020;6.764;2022-12-29T06:58:19;12.20;99.90
11838;DHT22;5978;51.020;6.764;2022-12-29T07:00:44;12.20;99.90
11838;DHT22;5978;51.020;6.764;2022-12-29T07:03:10;12.20;99.90
11838;DHT22;5978;51.020;6.764;2022-12-29T07:05:35;12.20;99.90
11838;DHT22;5978;51.020;6.764;2022-12-29T07:08:01;12.20;99.90
11838;DHT22;5978;51.020;6.764;2022-12-29T07:10:26;12.20;99.90
11838;DHT22;5978;51.020;6.764;2022-12-29T07:12:52;12.10;99.90
11838;DHT22;5978;51.020;6.764;2022-12-29T07:15:18;12.10;99.90
11838;DHT22;5978;51.020;6.764;2022-12-29T07:17:43;12.20;99.90
11838;DHT22;5978;51.020;6.764;2022-12-29T07:20:10;12.20;99.90
11838;DHT22;5978;51.020;6.764;2022-12-29T07:22:35;12.10;99.90
11838;DHT22;5978;51.020;6.764;2022-12-29T07:25:01;12.10;99.90
11838;DHT22;5978;51.020;6.764;2022-12-29T07:27:28;12.10;99.90
11838;DHT22;5978;51.020;6.764;2022-12-29T07:29:54;12.10;99.90
11838;DHT22;5978;51.020;6.764;2022-12-29T07:32:19;12.10;99.90
11838;DHT22;5978;51.020;6.764;2022-12-29T07:34:45;12.00;99.90
11838;DHT22;5978;51.020;6.764;2022-12-29T07:37:14;11.90;99.90
11838;DHT22;5978;51.020;6.764;2022-12-29T07:39:39;11.90;99.90
11838;DHT22;5978;51.020;6.764;2022-12-29T07:42:05;11.90;99.90
11838;DHT22;5978;51.020;6.764;2022-12-29T07:44:30;12.00;99.90
11838;DHT22;5978;51.020;6.764;2022-12-29T07:46:56;12.00;99.90
11838;DHT22;5978;51.020;6.764;2022-12-29T07:49:21;11.90;99.90
11838;DHT22;5978;51.020;6.764;2022-12-29T07:51:47;11.90;99.90
11838;DHT22;5978;51.020;6.764;2022-12-29T07:54:13;12.00;99.90
11838;DHT22;5978;51.020;6.764;2022-12-29T07:56:38;12.00;99.90
11838;DHT22;5978;51.020;6.764;2022-12-29T07:59:04;11.90;99.90
11838;DHT22;5978;51.020;6.764;2022-12-29T08:01:29;11.90;99.90
11838;DHT22;5978;51.020;6.764;2022-12-29T08:03:55;11.80;99.90
11838;DHT22;5978;51.020;6.764;2022-12-29T08:06:20;11.70;99.90
11838;DHT22;5978;51.020;6.764;2022-12-29T08:08:47;11.70;99.90
11838;DHT22;5978;51.020;6.764;2022-12-29T08:11:12;11.60;99.90
11838;DHT22;5978;51.020;6.764;2022-12-29T08:13:38;11.60;99.90
11838;DHT22;5978;51.020;6.764;2022-12-29T08:16:03;12.30;99.90
11838;DHT22;5978;51.020;6.764;2022-12-29T08:18:29;11.70;99.90
11838;DHT22;5978;51.020;6.764;2022-12-29T08:20:55;11.60;99.90
11838;DHT22;5978;51.020;6.764;2022-12-29T08:23:20;11.50;99.90
11838;DHT22;5978;51.020;6.764;2022-12-29T08:25:46;11.50;99.90
11838;DHT22;5978;51.020;6.764;2022-12-29T08:28:11;11.50;99.90
11838;DHT22;5978;51.020;6.764;2022-12-29T08:30:38;11.50;99.90
11838;DHT22;5978;51.020;6.764;2022-12-29T08:33:03;11.60;99.90
11838;DHT22;5978;51.020;6.764;2022-12-29T08:35:29;11.60;99.90
11838;DHT22;5978;51.020;6.764;2022-12-29T08:37:54;11.50;99.90
11838;DHT22;5978;51.020;6.764;2022-12-29T08:40:20;11.50;99.90
11838;DHT22;5978;51.020;6.764;2022-12-29T08:42:45;11.50;99.90
11838;DHT22;5978;51.020;6.764;2022-12-29T08:45:11;11.60;99.90
11838;DHT22;5978;51.020;6.764;2022-12-29T08:47:36;11.60;99.90
11838;DHT22;5978;51.020;6.764;2022-12-29T08:50:02;11.70;99.90
11838;DHT22;5978;51.020;6.764;2022-12-29T08:52:28;11.70;99.90
11838;DHT22;5978;51.020;6.764;2022-12-29T08:54:53;11.70;99.90
11838;DHT22;5978;51.020;6.764;2022-12-29T08:57:19;11.70;99.90
11838;DHT22;5978;51.020;6.764;2022-12-29T08:59:44;11.80;99.90
11838;DHT22;5978;51.020;6.764;2022-12-29T09:02:11;11.80;99.90
11838;DHT22;5978;51.020;6.764;2022-12-29T09:04:37;11.90;99.90
11838;DHT22;5978;51.020;6.764;2022-12-29T09:07:03;12.10;99.90
11838;DHT22;5978;51.020;6.764;2022-12-29T09:09:28;12.30;99.90
11838;DHT22;5978;51.020;6.764;2022-12-29T09:11:54;12.40;99.90
11838;DHT22;5978;51.020;6.764;2022-12-29T09:14:19;12.60;99.90
11838;DHT22;5978;51.020;6.764;2022-12-29T09:16:46;12.70;99.90
11838;DHT22;5978;51.020;6.764;2022-12-29T09:19:30;12.70;99.90
11838;DHT22;5978;51.020;6.764;2022-12-29T09:21:56;12.80;99.90
11838;DHT22;5978;51.020;6.764;2022-12-29T09:24:22;12.90;99.90
11838;DHT22;5978;51.020;6.764;2022-12-29T09:26:47;12.70;99.90
11838;DHT22;5978;51.020;6.764;2022-12-29T09:29:13;12.80;99.90
11838;DHT22;5978;51.020;6.764;2022-12-29T09:31:38;12.80;99.90
11838;DHT22;5978;51.020;6.764;2022-12-29T09:34:04;12.80;99.90
11838;DHT22;5978;51.020;6.764;2022-12-29T09:36:30;12.60;99.90
11838;DHT22;5978;51.020;6.764;2022-12-29T09:38:55;12.60;99.90
11838;DHT22;5978;51.020;6.764;2022-12-29T09:41:43;12.50;99.90
11838;DHT22;5978;51.020;6.764;2022-12-29T09:46:49;12.20;99.90
11838;DHT22;5978;51.020;6.764;2022-12-29T09:51:56;12.20;99.90
11838;DHT22;5978;51.020;6.764;2022-12-29T09:57:16;12.30;99.90
11838;DHT22;5978;51.020;6.764;2022-12-29T09:59:45;12.20;99.90
11838;DHT22;5978;51.020;6.764;2022-12-29T10:08:24;12.10;99.90
11838;DHT22;5978;51.020;6.764;2022-12-29T10:24:13;12.10;99.90
11838;DHT22;5978;51.020;6.764;2022-12-29T10:26:43;12.20;99.90
11838;DHT22;5978;51.020;6.764;2022-12-29T10:29:16;12.10;99.90
11838;DHT22;5978;51.020;6.764;2022-12-29T10:31:48;12.10;99.90
11838;DHT22;5978;51.020;6.764;2022-12-29T10:34:38;12.20;99.90
11838;DHT22;5978;51.020;6.764;2022-12-29T10:39:54;12.30;99.90
11838;DHT22;5978;51.020;6.764;2022-12-29T10:42:53;12.50;99.90
11838;DHT22;5978;51.020;6.764;2022-12-29T10:45:19;12.50;99.90
11838;DHT22;5978;51.020;6.764;2022-12-29T10:50:22;12.70;99.90
11838;DHT22;5978;51.020;6.764;2022-12-29T10:52:48;12.80;99.90
11838;DHT22;5978;51.020;6.764;2022-12-29T10:55:21;13.00;99.90
11838;DHT22;5978;51.020;6.764;2022-12-29T10:57:48;13.00;99.90
11838;DHT22;5978;51.020;6.764;2022-12-29T11:00:17;13.00;99.90
11838;DHT22;5978;51.020;6.764;2022-12-29T11:05:52;13.40;99.90
11838;DHT22;5978;51.020;6.764;2022-12-29T11:08:21;13.60;99.90
11838;DHT22;5978;51.020;6.764;2022-12-29T11:10:59;13.80;99.90
11838;DHT22;5978;51.020;6.764;2022-12-29T11:13:34;14.20;99.90
11838;DHT22;5978;51.020;6.764;2022-12-29T11:16:00;14.50;99.90
11838;DHT22;5978;51.020;6.764;2022-12-29T11:18:36;14.60;99.90
11838;DHT22;5978;51.020;6.764;2022-12-29T11:21:25;14.30;99.90
11838;DHT22;5978;51.020;6.764;2022-12-29T11:24:00;14.70;99.90
11838;DHT22;5978;51.020;6.764;2022-12-29T11:26:27;14.40;99.90
11838;DHT22;5978;51.020;6.764;2022-12-29T11:31:57;14.50;99.90
11838;DHT22;5978;51.020;6.764;2022-12-29T11:37:00;14.70;99.90
11838;DHT22;5978;51.020;6.764;2022-12-29T11:41:57;13.90;99.90
11838;DHT22;5978;51.020;6.764;2022-12-29T11:44:24;13.60;99.90
11838;DHT22;5978;51.020;6.764;2022-12-29T11:46:52;13.30;99.90
11838;DHT22;5978;51.020;6.764;2022-12-29T11:49:23;13.00;99.90
11838;DHT22;5978;51.020;6.764;2022-12-29T11:51:51;12.90;99.90
11838;DHT22;5978;51.020;6.764;2022-12-29T11:54:33;12.70;99.90
11838;DHT22;5978;51.020;6.764;2022-12-29T11:57:10;12.70;99.90
11838;DHT22;5978;51.020;6.764;2022-12-29T11:59:43;12.60;99.90
11838;DHT22;5978;51.020;6.764;2022-12-29T12:04:45;12.50;99.90
11838;DHT22;5978;51.020;6.764;2022-12-29T12:07:22;12.60;99.90
11838;DHT22;5978;51.020;6.764;2022-12-29T12:09:54;12.50;99.90
11838;DHT22;5978;51.020;6.764;2022-12-29T12:12:39;12.50;99.90
11838;DHT22;5978;51.020;6.764;2022-12-29T12:15:13;12.70;99.90
11838;DHT22;5978;51.020;6.764;2022-12-29T12:23:14;12.80;99.90
11838;DHT22;5978;51.020;6.764;2022-12-29T12:26:09;12.60;99.90
11838;DHT22;5978;51.020;6.764;2022-12-29T12:31:47;12.70;99.90
11838;DHT22;5978;51.020;6.764;2022-12-29T12:34:24;12.70;99.90
11838;DHT22;5978;51.020;6.764;2022-12-29T12:37:19;13.10;99.90
11838;DHT22;5978;51.020;6.764;2022-12-29T12:48:20;13.30;99.90
11838;DHT22;5978;51.020;6.764;2022-12-29T12:51:22;13.10;99.90
11838;DHT22;5978;51.020;6.764;2022-12-29T13:00:02;12.70;99.90
11838;DHT22;5978;51.020;6.764;2022-12-29T13:08:40;12.60;99.90
11838;DHT22;5978;51.020;6.764;2022-12-29T13:17:00;12.40;99.90
11838;DHT22;5978;51.020;6.764;2022-12-29T13:22:48;12.20;99.90
11838;DHT22;5978;51.020;6.764;2022-12-29T13:31:10;12.10;99.90
11838;DHT22;5978;51.020;6.764;2022-12-29T13:33:47;12.10;99.90
11838;DHT22;5978;51.020;6.764;2022-12-29T13:36:25;12.00;99.90
11838;DHT22;5978;51.020;6.764;2022-12-29T13:39:23;12.00;99.90
11838;DHT22;5978;51.020;6.764;2022-12-29T13:41:54;12.00;99.90
11838;DHT22;5978;51.020;6.764;2022-12-29T13:44:26;11.90;99.90
11838;DHT22;5978;51.020;6.764;2022-12-29T13:46:54;11.90;99.90
11838;DHT22;5978;51.020;6.764;2022-12-29T13:49:22;11.80;99.90
11838;DHT22;5978;51.020;6.764;2022-12-29T13:55:17;11.80;99.90
11838;DHT22;5978;51.020;6.764;2022-12-29T13:58:05;11.80;99.90
11838;DHT22;5978;51.020;6.764;2022-12-29T14:06:27;11.70;99.90
11838;DHT22;5978;51.020;6.764;2022-12-29T14:11:23;11.70;99.90
11838;DHT22;5978;51.020;6.764;2022-12-29T14:13:50;11.70;99.90
11838;DHT22;5978;51.020;6.764;2022-12-29T14:16:30;11.70;99.90
11838;DHT22;5978;51.020;6.764;2022-12-29T14:19:11;11.70;99.90
11838;DHT22;5978;51.020;6.764;2022-12-29T14:21:39;11.60;99.90
11838;DHT22;5978;51.020;6.764;2022-12-29T14:27:01;11.60;99.90
11838;DHT22;5978;51.020;6.764;2022-12-29T14:29:49;11.60;99.90
11838;DHT22;5978;51.020;6.764;2022-12-29T14:34:47;11.60;99.90
11838;DHT22;5978;51.020;6.764;2022-12-29T14:42:32;11.50;99.90
11838;DHT22;5978;51.020;6.764;2022-12-29T14:47:49;11.40;99.90
11838;DHT22;5978;51.020;6.764;2022-12-29T14:50:18;11.40;99.90
11838;DHT22;5978;51.020;6.764;2022-12-29T14:52:58;11.40;99.90
11838;DHT22;5978;51.020;6.764;2022-12-29T14:55:43;11.40;99.90
11838;DHT22;5978;51.020;6.764;2022-12-29T14:58:20;11.40;99.90
11838;DHT22;5978;51.020;6.764;2022-12-29T15:00:48;11.40;99.90
11838;DHT22;5978;51.020;6.764;2022-12-29T15:06:10;11.40;99.90
11838;DHT22;5978;51.020;6.764;2022-12-29T15:08:47;11.30;99.90
11838;DHT22;5978;51.020;6.764;2022-12-29T15:11:22;11.40;99.90
11838;DHT22;5978;51.020;6.764;2022-12-29T15:13:49;11.40;99.90
11838;DHT22;5978;51.020;6.764;2022-12-29T15:16:30;11.30;99.90
11838;DHT22;5978;51.020;6.764;2022-12-29T15:18:57;11.30;99.90
11838;DHT22;5978;51.020;6.764;2022-12-29T15:21:26;11.30;99.90
11838;DHT22;5978;51.020;6.764;2022-12-29T15:23:52;11.20;99.90
11838;DHT22;5978;51.020;6.764;2022-12-29T15:26:19;11.20;99.90
11838;DHT22;5978;51.020;6.764;2022-12-29T15:28:52;11.20;99.90
11838;DHT22;5978;51.020;6.764;2022-12-29T15:31:23;11.20;99.90
11838;DHT22;5978;51.020;6.764;2022-12-29T15:34:11;11.10;99.90
11838;DHT22;5978;51.020;6.764;2022-12-29T15:36:39;11.10;99.90
11838;DHT22;5978;51.020;6.764;2022-12-29T15:39:27;11.00;99.90
11838;DHT22;5978;51.020;6.764;2022-12-29T15:42:02;11.00;99.90
11838;DHT22;5978;51.020;6.764;2022-12-29T15:44:39;10.90;99.90
11838;DHT22;5978;51.020;6.764;2022-12-29T15:47:28;10.90;99.90
11838;DHT22;5978;51.020;6.764;2022-12-29T15:52:49;10.80;99.90
11838;DHT22;5978;51.020;6.764;2022-12-29T15:55:33;10.80;99.90
11838;DHT22;5978;51.020;6.764;2022-12-29T15:58:01;10.70;99.90
11838;DHT22;5978;51.020;6.764;2022-12-29T16:00:30;10.50;99.90
11838;DHT22;5978;51.020;6.764;2022-12-29T16:02:59;10.50;99.90
11838;DHT22;5978;51.020;6.764;2022-12-29T16:05:34;10.40;99.90
11838;DHT22;5978;51.020;6.764;2022-12-29T16:08:01;10.40;99.90
11838;DHT22;5978;51.020;6.764;2022-12-29T16:10:40;10.30;99.90
11838;DHT22;5978;51.020;6.764;2022-12-29T16:13:17;10.30;99.90
11838;DHT22;5978;51.020;6.764;2022-12-29T16:15:48;10.20;99.90
11838;DHT22;5978;51.020;6.764;2022-12-29T16:18:23;10.20;99.90
11838;DHT22;5978;51.020;6.764;2022-12-29T16:20:50;10.10;99.90
11838;DHT22;5978;51.020;6.764;2022-12-29T16:23:25;10.00;99.90
11838;DHT22;5978;51.020;6.764;2022-12-29T16:25:52;10.00;99.90
11838;DHT22;5978;51.020;6.764;2022-12-29T16:28:30;10.00;99.90
11838;DHT22;5978;51.020;6.764;2022-12-29T16:33:51;9.90;99.90
11838;DHT22;5978;51.020;6.764;2022-12-29T16:39:17;9.70;99.90
11838;DHT22;5978;51.020;6.764;2022-12-29T16:41:46;9.80;99.90
11838;DHT22;5978;51.020;6.764;2022-12-29T16:44:28;9.70;99.90
11838;DHT22;5978;51.020;6.764;2022-12-29T16:49:29;9.60;99.90
11838;DHT22;5978;51.020;6.764;2022-12-29T16:51:55;9.60;99.90
11838;DHT22;5978;51.020;6.764;2022-12-29T16:54:33;9.60;99.90
11838;DHT22;5978;51.020;6.764;2022-12-29T16:57:00;9.60;99.90
11838;DHT22;5978;51.020;6.764;2022-12-29T16:59:35;9.60;99.90
11838;DHT22;5978;51.020;6.764;2022-12-29T17:02:07;9.60;99.90
11838;DHT22;5978;51.020;6.764;2022-12-29T17:04:32;9.60;99.90
11838;DHT22;5978;51.020;6.764;2022-12-29T17:06:58;9.60;99.90
11838;DHT22;5978;51.020;6.764;2022-12-29T17:09:26;9.60;99.90
11838;DHT22;5978;51.020;6.764;2022-12-29T17:11:57;9.60;99.90
11838;DHT22;5978;51.020;6.764;2022-12-29T17:20:09;9.60;99.90
11838;DHT22;5978;51.020;6.764;2022-12-29T17:22:38;9.60;99.90
11838;DHT22;5978;51.020;6.764;2022-12-29T17:25:04;9.60;99.90
11838;DHT22;5978;51.020;6.764;2022-12-29T17:27:46;9.70;99.90
11838;DHT22;5978;51.020;6.764;2022-12-29T17:30:15;9.70;99.90
11838;DHT22;5978;51.020;6.764;2022-12-29T17:32:42;9.80;99.90
11838;DHT22;5978;51.020;6.764;2022-12-29T17:35:19;9.80;99.90
11838;DHT22;5978;51.020;6.764;2022-12-29T17:37:45;9.70;99.90
11838;DHT22;5978;51.020;6.764;2022-12-29T17:40:19;10.10;99.90
11838;DHT22;5978;51.020;6.764;2022-12-29T17:42:48;9.80;99.90
11838;DHT22;5978;51.020;6.764;2022-12-29T17:45:14;9.80;99.90
11838;DHT22;5978;51.020;6.764;2022-12-29T17:47:41;9.80;99.90
11838;DHT22;5978;51.020;6.764;2022-12-29T17:50:12;9.30;99.90
11838;DHT22;5978;51.020;6.764;2022-12-29T17:52:38;9.50;99.90
11838;DHT22;5978;51.020;6.764;2022-12-29T17:55:03;9.70;99.90
11838;DHT22;5978;51.020;6.764;2022-12-29T17:57:29;9.60;99.90
11838;DHT22;5978;51.020;6.764;2022-12-29T17:59:55;9.70;99.90
11838;DHT22;5978;51.020;6.764;2022-12-29T18:02:30;9.70;99.90
11838;DHT22;5978;51.020;6.764;2022-12-29T18:04:59;9.70;99.90
11838;DHT22;5978;51.020;6.764;2022-12-29T18:07:27;9.70;99.90
11838;DHT22;5978;51.020;6.764;2022-12-29T18:09:53;9.60;99.90
11838;DHT22;5978;51.020;6.764;2022-12-29T18:12:37;9.50;99.90
11838;DHT22;5978;51.020;6.764;2022-12-29T18:15:03;9.40;99.90
11838;DHT22;5978;51.020;6.764;2022-12-29T18:17:29;9.40;99.90
11838;DHT22;5978;51.020;6.764;2022-12-29T18:19:55;9.40;99.90
11838;DHT22;5978;51.020;6.764;2022-12-29T18:22:23;9.30;99.90
11838;DHT22;5978;51.020;6.764;2022-12-29T18:24:49;9.30;99.90
11838;DHT22;5978;51.020;6.764;2022-12-29T18:27:15;9.20;99.90
11838;DHT22;5978;51.020;6.764;2022-12-29T18:29:44;9.20;99.90
11838;DHT22;5978;51.020;6.764;2022-12-29T18:32:13;9.10;99.90
11838;DHT22;5978;51.020;6.764;2022-12-29T18:34:40;9.10;99.90
11838;DHT22;5978;51.020;6.764;2022-12-29T18:37:06;9.00;99.90
11838;DHT22;5978;51.020;6.764;2022-12-29T18:39:32;9.00;99.90
11838;DHT22;5978;51.020;6.764;2022-12-29T18:41:57;8.90;99.90
11838;DHT22;5978;51.020;6.764;2022-12-29T18:44:23;8.90;99.90
11838;DHT22;5978;51.020;6.764;2022-12-29T18:46:49;8.80;99.90